createdAt,value
2017-11-13T00:00:39.493Z,4.60
2017-11-13T00:03:07.021Z,4.60
2017-11-13T00:05:34.546Z,4.60
2017-11-13T00:08:02.082Z,4.60
2017-11-13T00:10:29.625Z,4.70
2017-11-13T00:12:57.181Z,4.70
2017-11-13T00:15:24.706Z,4.70
2017-11-13T00:17:52.652Z,4.70
2017-11-13T00:20:20.194Z,4.70
2017-11-13T00:22:47.765Z,4.70
2017-11-13T00:25:15.297Z,4.60
2017-11-13T00:27:42.819Z,4.60
2017-11-13T00:30:10.368Z,4.60
2017-11-13T00:32:37.894Z,4.60
2017-11-13T00:35:05.451Z,4.60
2017-11-13T00:37:32.985Z,4.60
2017-11-13T00:40:00.560Z,4.60
2017-11-13T00:42:28.139Z,4.60
2017-11-13T00:44:55.666Z,4.60
2017-11-13T00:47:23.602Z,4.60
2017-11-13T00:49:51.124Z,4.70
2017-11-13T00:52:18.675Z,4.60
2017-11-13T00:54:46.189Z,4.70
2017-11-13T00:57:13.760Z,4.60
2017-11-13T00:59:41.291Z,4.60
2017-11-13T01:02:08.821Z,4.60
2017-11-13T01:04:36.353Z,4.60
2017-11-13T01:07:04.265Z,4.60
2017-11-13T01:09:32.197Z,4.60
2017-11-13T01:11:59.712Z,4.60
2017-11-13T01:14:27.280Z,4.60
2017-11-13T01:16:55.228Z,4.60
2017-11-13T01:19:22.765Z,4.60
2017-11-13T01:21:50.327Z,4.60
2017-11-13T01:24:17.841Z,4.60
2017-11-13T01:26:45.392Z,4.60
2017-11-13T01:29:12.916Z,4.60
2017-11-13T01:31:40.486Z,4.60
2017-11-13T01:34:07.998Z,4.60
2017-11-13T01:36:35.511Z,4.60
2017-11-13T01:39:03.454Z,4.60
2017-11-13T01:41:30.979Z,4.60
2017-11-13T01:43:59.781Z,4.60
2017-11-13T01:46:27.721Z,4.60
2017-11-13T01:48:55.295Z,4.60
2017-11-13T01:51:22.813Z,4.60
2017-11-13T01:53:50.327Z,4.60
2017-11-13T01:56:17.884Z,4.60
2017-11-13T01:58:45.420Z,4.50
2017-11-13T02:01:12.979Z,4.50
2017-11-13T02:03:40.511Z,4.50
2017-11-13T02:06:08.079Z,4.50
2017-11-13T02:08:36.007Z,4.50
2017-11-13T02:11:03.625Z,4.50
2017-11-13T02:13:31.148Z,4.50
2017-11-13T02:15:59.079Z,4.50
2017-11-13T02:18:26.629Z,4.60
2017-11-13T02:20:54.162Z,4.60
2017-11-13T02:23:21.693Z,4.50
2017-11-13T02:25:49.209Z,4.50
2017-11-13T02:28:16.749Z,4.50
2017-11-13T02:30:44.264Z,4.50
2017-11-13T02:33:11.825Z,4.50
2017-11-13T02:35:39.355Z,4.40
2017-11-13T02:38:06.898Z,4.40
2017-11-13T02:40:34.826Z,4.40
2017-11-13T02:43:02.351Z,4.40
2017-11-13T02:45:29.904Z,4.40
2017-11-13T02:47:57.475Z,4.40
2017-11-13T02:50:25.035Z,4.40
2017-11-13T02:52:52.550Z,4.40
2017-11-13T02:55:20.514Z,4.40
2017-11-13T02:57:48.060Z,4.40
2017-11-13T03:00:15.592Z,4.40
2017-11-13T03:02:43.124Z,4.40
2017-11-13T03:05:10.641Z,4.30
2017-11-13T03:07:38.189Z,4.40
2017-11-13T03:10:05.711Z,4.40
2017-11-13T03:12:33.244Z,4.30
2017-11-13T03:15:00.759Z,4.40
2017-11-13T03:17:28.349Z,4.30
2017-11-13T03:19:55.864Z,4.40
2017-11-13T03:22:23.781Z,4.30
2017-11-13T03:24:51.330Z,4.40
2017-11-13T03:27:18.863Z,4.40
2017-11-13T03:29:46.403Z,4.30
2017-11-13T03:32:13.937Z,4.30
2017-11-13T03:34:41.890Z,4.30
2017-11-13T03:37:09.421Z,4.40
2017-11-13T03:39:37.352Z,4.30
2017-11-13T03:42:04.884Z,4.40
2017-11-13T03:44:32.417Z,4.40
2017-11-13T03:46:59.958Z,4.30
2017-11-13T03:49:27.747Z,4.30
2017-11-13T03:51:55.285Z,4.30
2017-11-13T03:54:22.820Z,4.30
2017-11-13T03:56:50.350Z,4.30
2017-11-13T03:59:17.869Z,4.40
2017-11-13T04:01:45.395Z,4.40
2017-11-13T04:04:12.941Z,4.40
2017-11-13T04:06:40.455Z,4.40
2017-11-13T04:09:07.982Z,4.40
2017-11-13T04:11:35.907Z,4.40
2017-11-13T04:14:03.417Z,4.40
2017-11-13T04:16:30.976Z,4.40
2017-11-13T04:18:58.855Z,4.40
2017-11-13T04:21:26.397Z,4.40
2017-11-13T04:23:53.934Z,4.40
2017-11-13T04:26:21.479Z,4.40
2017-11-13T04:28:49.428Z,4.40
2017-11-13T04:31:16.947Z,4.40
2017-11-13T04:33:44.495Z,4.40
2017-11-13T04:36:12.013Z,4.40
2017-11-13T04:38:39.540Z,4.40
2017-11-13T04:41:07.085Z,4.40
2017-11-13T04:43:34.606Z,4.40
2017-11-13T04:46:02.160Z,4.40
2017-11-13T04:48:29.692Z,4.40
2017-11-13T04:50:57.626Z,4.40
2017-11-13T04:53:25.158Z,4.50
2017-11-13T04:55:52.702Z,4.40
2017-11-13T04:58:20.255Z,4.40
2017-11-13T05:00:47.775Z,4.40
2017-11-13T05:03:15.288Z,4.40
2017-11-13T05:05:42.838Z,4.50
2017-11-13T05:08:10.361Z,4.40
2017-11-13T05:10:37.935Z,4.50
2017-11-13T05:13:05.460Z,4.50
2017-11-13T05:15:33.408Z,4.50
2017-11-13T05:18:00.955Z,4.50
2017-11-13T05:20:28.887Z,4.50
2017-11-13T05:22:56.422Z,4.50
2017-11-13T05:25:23.961Z,4.50
2017-11-13T05:27:51.559Z,4.50
2017-11-13T05:30:19.088Z,4.60
2017-11-13T05:32:46.611Z,4.60
2017-11-13T05:35:14.143Z,4.60
2017-11-13T05:37:41.671Z,4.50
2017-11-13T05:40:09.230Z,4.60
2017-11-13T05:42:37.161Z,4.60
2017-11-13T05:45:04.730Z,4.60
2017-11-13T05:47:32.271Z,4.60
2017-11-13T05:49:59.792Z,4.60
2017-11-13T05:52:27.751Z,4.60
2017-11-13T05:54:55.293Z,4.60
2017-11-13T05:57:22.837Z,4.60
2017-11-13T05:59:50.358Z,4.60
2017-11-13T06:02:17.876Z,4.60
2017-11-13T06:04:45.432Z,4.60
2017-11-13T06:07:12.963Z,4.60
2017-11-13T06:09:40.517Z,4.60
2017-11-13T06:12:08.065Z,4.60
2017-11-13T06:14:35.624Z,4.60
2017-11-13T06:17:03.163Z,4.70
2017-11-13T06:19:30.712Z,4.60
2017-11-13T06:21:58.229Z,4.70
2017-11-13T06:24:25.772Z,4.70
2017-11-13T06:26:53.288Z,4.70
2017-11-13T06:29:21.218Z,4.70
2017-11-13T06:31:48.743Z,4.80
2017-11-13T06:34:16.292Z,4.70
2017-11-13T06:36:43.816Z,4.80
2017-11-13T06:39:11.363Z,4.70
2017-11-13T06:41:38.893Z,4.80
2017-11-13T06:44:06.835Z,4.70
2017-11-13T06:46:34.372Z,4.70
2017-11-13T06:49:02.310Z,4.80
2017-11-13T06:51:29.821Z,4.80
2017-11-13T06:53:57.350Z,4.80
2017-11-13T06:56:25.279Z,4.80
2017-11-13T06:58:52.827Z,4.80
2017-11-13T07:01:20.752Z,4.80
2017-11-13T07:03:48.280Z,4.80
2017-11-13T07:06:15.804Z,4.80
2017-11-13T07:08:43.732Z,4.80
2017-11-13T07:11:11.267Z,4.80
2017-11-13T07:13:39.199Z,4.80
2017-11-13T07:16:06.729Z,4.80
2017-11-13T07:18:34.266Z,4.90
2017-11-13T07:21:01.824Z,4.80
2017-11-13T07:23:29.363Z,4.90
2017-11-13T07:25:56.931Z,4.90
2017-11-13T07:28:24.444Z,4.90
2017-11-13T07:30:52.850Z,4.90
2017-11-13T07:33:20.391Z,4.90
2017-11-13T07:35:47.949Z,4.90
2017-11-13T07:38:15.875Z,5.00
2017-11-13T07:40:43.406Z,5.00
2017-11-13T07:43:10.945Z,5.00
2017-11-13T07:45:38.478Z,5.00
2017-11-13T07:48:05.995Z,5.00
2017-11-13T07:50:33.946Z,5.00
2017-11-13T07:53:01.470Z,5.00
2017-11-13T07:55:29.828Z,5.10
2017-11-13T07:57:57.345Z,5.10
2017-11-13T08:00:24.888Z,5.10
2017-11-13T08:02:52.410Z,5.10
2017-11-13T08:05:19.964Z,5.10
2017-11-13T08:07:47.500Z,5.20
2017-11-13T08:10:15.033Z,5.20
2017-11-13T08:12:42.543Z,5.20
2017-11-13T08:15:10.078Z,5.20
2017-11-13T08:17:37.589Z,5.20
2017-11-13T08:20:05.128Z,5.30
2017-11-13T08:22:33.064Z,5.40
2017-11-13T08:25:00.626Z,5.40
2017-11-13T08:27:28.170Z,5.40
2017-11-13T08:29:55.709Z,5.40
2017-11-13T08:32:23.221Z,5.50
2017-11-13T08:34:50.772Z,5.40
2017-11-13T08:37:18.280Z,5.50
2017-11-13T08:39:45.793Z,5.50
2017-11-13T08:42:13.341Z,5.50
2017-11-13T08:44:40.886Z,5.50
2017-11-13T08:47:08.433Z,5.50
2017-11-13T08:49:35.949Z,5.50
2017-11-13T08:52:03.502Z,5.60
2017-11-13T08:54:31.431Z,5.70
2017-11-13T08:56:59.009Z,5.70
2017-11-13T08:59:26.529Z,5.70
2017-11-13T09:01:54.076Z,5.70
2017-11-13T09:04:21.587Z,5.70
2017-11-13T09:06:49.129Z,5.70
2017-11-13T09:09:16.650Z,5.70
2017-11-13T09:11:44.608Z,5.70
2017-11-13T09:14:12.130Z,5.70
2017-11-13T09:16:39.661Z,5.70
2017-11-13T09:19:07.584Z,5.80
2017-11-13T09:21:35.121Z,5.80
2017-11-13T09:24:02.637Z,5.80
2017-11-13T09:26:30.569Z,5.90
2017-11-13T09:28:58.204Z,5.90
2017-11-13T09:31:26.229Z,6.00
2017-11-13T09:33:53.764Z,6.00
2017-11-13T09:36:21.298Z,5.90
2017-11-13T09:38:48.843Z,6.00
2017-11-13T09:41:16.809Z,6.10
2017-11-13T09:43:44.351Z,6.10
2017-11-13T09:46:12.285Z,6.10
2017-11-13T09:48:39.810Z,6.10
2017-11-13T09:51:07.353Z,6.10
2017-11-13T09:53:34.889Z,6.20
2017-11-13T09:56:02.429Z,6.30
2017-11-13T09:58:29.941Z,6.40
2017-11-13T10:00:57.507Z,6.50
2017-11-13T10:03:25.046Z,6.60
2017-11-13T10:05:52.590Z,6.80
2017-11-13T10:08:20.121Z,6.80
2017-11-13T10:10:47.648Z,6.80
2017-11-13T10:13:15.204Z,6.90
2017-11-13T10:15:43.127Z,7.00
2017-11-13T10:18:10.672Z,7.00
2017-11-13T10:20:38.188Z,7.00
2017-11-13T10:23:05.735Z,7.10
2017-11-13T10:25:33.266Z,7.10
2017-11-13T10:28:00.818Z,7.20
2017-11-13T10:30:28.746Z,7.40
2017-11-13T10:32:56.293Z,7.40
2017-11-13T10:35:24.228Z,7.50
2017-11-13T10:37:51.780Z,7.60
2017-11-13T10:40:19.709Z,7.80
2017-11-13T10:42:47.250Z,7.80
2017-11-13T10:45:14.761Z,7.90
2017-11-13T10:47:42.310Z,8.00
2017-11-13T10:50:09.852Z,8.00
2017-11-13T10:52:37.386Z,8.10
2017-11-13T10:55:04.910Z,8.20
2017-11-13T10:57:32.455Z,8.10
2017-11-13T10:59:59.973Z,8.20
2017-11-13T11:02:27.519Z,8.20
2017-11-13T11:04:55.047Z,8.20
2017-11-13T11:07:22.597Z,8.30
2017-11-13T11:09:50.116Z,8.40
2017-11-13T11:12:21.210Z,8.40
2017-11-13T11:14:48.742Z,8.50
2017-11-13T11:17:27.523Z,8.50
2017-11-13T11:20:01.657Z,8.60
2017-11-13T11:22:29.669Z,8.50
2017-11-13T11:24:57.188Z,8.40
2017-11-13T11:27:29.333Z,8.40
2017-11-13T11:29:57.876Z,8.40
2017-11-13T11:32:26.015Z,8.40
2017-11-13T11:38:00.188Z,8.60
2017-11-13T11:40:31.152Z,8.60
2017-11-13T11:42:58.737Z,8.50
2017-11-13T11:48:43.201Z,8.50
2017-11-13T11:51:10.713Z,8.50
2017-11-13T11:53:42.085Z,8.40
2017-11-13T11:59:07.656Z,8.30
2017-11-13T12:01:35.577Z,8.20
2017-11-13T12:04:03.146Z,8.20
2017-11-13T12:06:30.685Z,8.20
2017-11-13T12:08:58.241Z,8.20
2017-11-13T12:11:25.764Z,8.20
2017-11-13T12:13:53.293Z,8.20
2017-11-13T12:16:20.829Z,8.20
2017-11-13T12:18:48.376Z,8.30
2017-11-13T12:21:15.899Z,8.30
2017-11-13T12:23:43.453Z,8.30
2017-11-13T12:26:10.961Z,8.30
2017-11-13T12:28:38.488Z,8.40
2017-11-13T12:31:06.397Z,8.30
2017-11-13T12:33:33.936Z,8.30
2017-11-13T12:36:01.465Z,8.20
2017-11-13T12:38:29.003Z,8.20
2017-11-13T12:40:56.526Z,8.20
2017-11-13T12:43:24.072Z,8.20
2017-11-13T12:45:51.593Z,8.20
2017-11-13T12:48:19.519Z,8.20
2017-11-13T12:50:47.071Z,8.20
2017-11-13T12:53:14.989Z,8.20
2017-11-13T12:55:42.524Z,8.20
2017-11-13T12:58:10.032Z,8.20
2017-11-13T13:00:37.953Z,8.20
2017-11-13T13:03:05.487Z,8.20
2017-11-13T13:05:33.057Z,8.10
2017-11-13T13:08:00.580Z,8.00
2017-11-13T13:10:28.104Z,8.00
2017-11-13T13:12:55.620Z,7.90
2017-11-13T13:15:23.187Z,7.90
2017-11-13T13:17:50.707Z,7.90
2017-11-13T13:20:18.230Z,7.90
2017-11-13T13:22:45.755Z,7.80
2017-11-13T13:25:13.830Z,7.80
2017-11-13T13:27:41.356Z,7.90
2017-11-13T13:30:09.294Z,7.90
2017-11-13T13:32:36.809Z,7.90
2017-11-13T13:35:04.349Z,7.80
2017-11-13T13:37:32.270Z,7.60
2017-11-13T13:39:59.798Z,7.60
2017-11-13T13:42:27.308Z,7.60
2017-11-13T13:44:54.835Z,7.50
2017-11-13T13:47:22.751Z,7.30
2017-11-13T13:49:50.299Z,7.30
2017-11-13T13:52:17.837Z,7.30
2017-11-13T13:54:45.758Z,7.30
2017-11-13T13:57:13.279Z,7.30
2017-11-13T13:59:40.809Z,7.30
2017-11-13T14:02:08.327Z,7.30
2017-11-13T14:04:35.875Z,7.30
2017-11-13T14:07:03.385Z,7.40
2017-11-13T14:09:31.042Z,7.40
2017-11-13T14:11:58.568Z,7.40
2017-11-13T14:14:26.107Z,7.50
2017-11-13T14:16:53.642Z,7.60
2017-11-13T14:19:21.567Z,7.60
2017-11-13T14:21:49.116Z,7.60
2017-11-13T14:24:16.626Z,7.60
2017-11-13T14:26:44.151Z,7.70
2017-11-13T14:29:11.666Z,7.70
2017-11-13T14:31:39.232Z,7.60
2017-11-13T14:34:06.745Z,7.70
2017-11-13T14:36:34.691Z,7.70
2017-11-13T14:39:02.221Z,7.70
2017-11-13T14:41:29.767Z,7.70
2017-11-13T14:43:57.290Z,7.70
2017-11-13T14:46:25.224Z,7.80
2017-11-13T14:48:52.755Z,7.70
2017-11-13T14:51:20.282Z,7.80
2017-11-13T14:53:47.856Z,7.80
2017-11-13T14:56:15.403Z,7.80
2017-11-13T14:58:43.744Z,7.80
2017-11-13T15:01:11.268Z,7.80
2017-11-13T15:03:38.802Z,7.80
2017-11-13T15:06:06.347Z,7.80
2017-11-13T15:08:33.869Z,7.70
2017-11-13T15:11:01.388Z,7.70
2017-11-13T15:13:28.898Z,7.70
2017-11-13T15:15:56.422Z,7.70
2017-11-13T15:18:23.951Z,7.70
2017-11-13T15:20:52.307Z,7.60
2017-11-13T15:23:19.851Z,7.50
2017-11-13T15:25:47.381Z,7.50
2017-11-13T15:28:14.903Z,7.40
2017-11-13T15:30:42.437Z,7.30
2017-11-13T15:33:09.941Z,7.30
2017-11-13T15:35:37.454Z,7.20
2017-11-13T15:38:04.991Z,7.10
2017-11-13T15:40:32.496Z,7.10
2017-11-13T15:43:00.020Z,7.00
2017-11-13T15:45:27.930Z,6.90
2017-11-13T15:47:55.467Z,6.90
2017-11-13T15:50:22.995Z,6.80
2017-11-13T15:52:50.542Z,6.80
2017-11-13T15:55:18.067Z,6.80
2017-11-13T15:57:45.609Z,6.70
2017-11-13T16:00:13.973Z,6.60
2017-11-13T16:02:41.635Z,6.60
2017-11-13T16:05:09.163Z,6.50
2017-11-13T16:07:36.696Z,6.40
2017-11-13T16:10:04.615Z,6.30
2017-11-13T16:12:32.163Z,6.40
2017-11-13T16:15:00.094Z,6.30
2017-11-13T16:17:27.646Z,6.30
2017-11-13T16:19:55.550Z,6.30
2017-11-13T16:22:23.491Z,6.30
2017-11-13T16:24:51.018Z,6.30
2017-11-13T16:27:18.949Z,6.30
2017-11-13T16:29:46.460Z,6.30
2017-11-13T16:32:13.998Z,6.30
2017-11-13T16:34:41.517Z,6.20
2017-11-13T16:37:09.071Z,6.20
2017-11-13T16:39:36.592Z,6.20
2017-11-13T16:42:04.144Z,6.20
2017-11-13T16:44:31.662Z,6.20
2017-11-13T16:46:59.176Z,6.20
2017-11-13T16:49:27.076Z,6.20
2017-11-13T16:51:54.608Z,6.30
2017-11-13T16:54:22.120Z,6.20
2017-11-13T16:56:49.646Z,6.10
2017-11-13T16:59:17.172Z,6.10
2017-11-13T17:01:44.686Z,6.10
2017-11-13T17:04:12.213Z,6.00
2017-11-13T17:06:39.731Z,6.00
2017-11-13T17:09:07.274Z,6.00
2017-11-13T17:11:34.807Z,6.00
2017-11-13T17:14:02.343Z,6.00
2017-11-13T17:16:29.878Z,5.90
2017-11-13T17:18:57.403Z,5.90
2017-11-13T17:21:24.920Z,5.90
2017-11-13T17:23:52.441Z,5.90
2017-11-13T17:26:19.965Z,5.90
2017-11-13T17:28:47.518Z,6.00
2017-11-13T17:31:15.432Z,5.90
2017-11-13T17:33:42.979Z,6.00
2017-11-13T17:36:10.520Z,6.00
2017-11-13T17:38:38.072Z,6.10
2017-11-13T17:41:06.005Z,6.20
2017-11-13T17:43:33.552Z,6.20
2017-11-13T17:46:01.089Z,6.30
2017-11-13T17:48:28.710Z,6.30
2017-11-13T17:50:56.215Z,6.30
2017-11-13T17:53:23.740Z,6.30
2017-11-13T17:55:51.254Z,6.30
2017-11-13T17:58:18.800Z,6.30
2017-11-13T18:00:46.307Z,6.40
2017-11-13T18:03:13.847Z,6.40
2017-11-13T18:05:41.405Z,6.40
2017-11-13T18:08:09.324Z,6.40
2017-11-13T18:10:36.853Z,6.40
2017-11-13T18:13:04.400Z,6.30
2017-11-13T18:15:31.920Z,6.30
2017-11-13T18:17:59.472Z,6.30
2017-11-13T18:20:26.989Z,6.30
2017-11-13T18:22:54.493Z,6.30
2017-11-13T18:25:22.038Z,6.30
2017-11-13T18:27:49.564Z,6.20
2017-11-13T18:30:17.106Z,6.20
2017-11-13T18:32:44.625Z,6.20
2017-11-13T18:35:12.175Z,6.20
2017-11-13T18:37:39.684Z,6.10
2017-11-13T18:40:07.231Z,6.10
2017-11-13T18:42:34.745Z,6.10
2017-11-13T18:45:02.273Z,6.10
2017-11-13T18:47:29.774Z,6.00
2017-11-13T18:49:57.292Z,6.00
2017-11-13T18:52:24.813Z,6.00
2017-11-13T18:54:52.359Z,5.90
2017-11-13T18:57:19.865Z,5.80
2017-11-13T18:59:47.395Z,5.80
2017-11-13T19:02:15.328Z,5.80
2017-11-13T19:04:42.855Z,5.80
2017-11-13T19:07:10.369Z,5.70
2017-11-13T19:09:37.889Z,5.60
2017-11-13T19:12:05.404Z,5.60
2017-11-13T19:14:32.957Z,5.50
2017-11-13T19:17:00.472Z,5.40
2017-11-13T19:19:28.018Z,5.40
2017-11-13T19:21:55.526Z,5.30
2017-11-13T19:24:23.072Z,5.30
2017-11-13T19:26:50.590Z,5.20
2017-11-13T19:29:18.525Z,5.20
2017-11-13T19:31:46.051Z,5.20
2017-11-13T19:34:13.591Z,5.10
2017-11-13T19:36:41.149Z,5.20
2017-11-13T19:39:08.706Z,5.20
2017-11-13T19:41:36.627Z,5.10
2017-11-13T19:44:04.201Z,5.20
2017-11-13T19:46:31.702Z,5.20
2017-11-13T19:48:59.248Z,5.20
2017-11-13T19:51:26.794Z,5.20
2017-11-13T19:53:54.306Z,5.20
2017-11-13T19:56:21.857Z,5.10
2017-11-13T19:58:49.383Z,5.10
2017-11-13T20:01:17.662Z,5.10
2017-11-13T20:03:45.177Z,5.10
2017-11-13T20:06:12.737Z,5.10
2017-11-13T20:08:40.261Z,5.10
2017-11-13T20:11:07.784Z,5.10
2017-11-13T20:13:35.285Z,5.10
2017-11-13T20:16:02.817Z,5.10
2017-11-13T20:18:30.323Z,5.00
2017-11-13T20:20:57.844Z,5.00
2017-11-13T20:23:25.378Z,4.90
2017-11-13T20:25:52.917Z,4.90
2017-11-13T20:28:20.821Z,4.80
2017-11-13T20:30:48.341Z,4.70
2017-11-13T20:33:15.849Z,4.60
2017-11-13T20:35:43.616Z,4.60
2017-11-13T20:38:11.198Z,4.50
2017-11-13T20:40:38.733Z,4.40
2017-11-13T20:43:06.253Z,4.40
2017-11-13T20:45:33.827Z,4.30
2017-11-13T20:48:01.424Z,4.20
2017-11-13T20:50:28.965Z,4.20
2017-11-13T20:52:56.488Z,4.10
2017-11-13T20:55:24.016Z,4.00
2017-11-13T20:57:51.938Z,3.90
2017-11-13T21:00:19.501Z,3.90
2017-11-13T21:02:47.007Z,3.80
2017-11-13T21:05:14.934Z,3.70
2017-11-13T21:07:42.490Z,3.80
2017-11-13T21:10:10.005Z,3.70
2017-11-13T21:12:37.940Z,3.60
2017-11-13T21:15:05.467Z,3.60
2017-11-13T21:17:33.000Z,3.50
2017-11-13T21:20:00.516Z,3.40
2017-11-13T21:22:28.060Z,3.40
2017-11-13T21:24:55.582Z,3.30
2017-11-13T21:27:23.138Z,3.30
2017-11-13T21:29:50.670Z,3.30
2017-11-13T21:32:18.176Z,3.20
2017-11-13T21:34:45.722Z,3.20
2017-11-13T21:37:13.640Z,3.10
2017-11-13T21:39:41.188Z,3.10
2017-11-13T21:42:08.693Z,3.10
2017-11-13T21:44:36.216Z,3.10
2017-11-13T21:47:03.746Z,3.00
2017-11-13T21:49:31.372Z,3.00
2017-11-13T21:51:59.276Z,2.90
2017-11-13T21:54:26.931Z,3.00
2017-11-13T21:56:54.459Z,2.90
2017-11-13T21:59:21.983Z,2.90
2017-11-13T22:01:49.525Z,2.80
2017-11-13T22:04:17.052Z,2.80
2017-11-13T22:06:44.581Z,2.80
2017-11-13T22:09:12.132Z,2.80
2017-11-13T22:11:39.662Z,2.80
2017-11-13T22:14:07.173Z,2.70
2017-11-13T22:16:34.704Z,2.70
2017-11-13T22:19:02.229Z,2.70
2017-11-13T22:21:29.738Z,2.60
2017-11-13T22:23:57.657Z,2.60
2017-11-13T22:26:25.184Z,2.60
2017-11-13T22:28:52.753Z,2.60
2017-11-13T22:31:20.324Z,2.60
2017-11-13T22:33:47.838Z,2.60
2017-11-13T22:36:15.387Z,2.50
2017-11-13T22:38:43.724Z,2.50
2017-11-13T22:41:11.272Z,2.50
2017-11-13T22:43:38.797Z,2.50
2017-11-13T22:46:06.343Z,2.50
2017-11-13T22:48:34.268Z,2.50
2017-11-13T22:51:01.795Z,2.50
2017-11-13T22:53:29.322Z,2.50
2017-11-13T22:55:56.854Z,2.50
2017-11-13T22:58:24.382Z,2.50
2017-11-13T23:00:52.472Z,2.40
2017-11-13T23:03:20.028Z,2.50
2017-11-13T23:05:47.574Z,2.40
2017-11-13T23:08:15.125Z,2.50
2017-11-13T23:10:42.670Z,2.40
2017-11-13T23:13:10.225Z,2.40
2017-11-13T23:15:38.130Z,2.30
2017-11-13T23:18:05.644Z,2.40
2017-11-13T23:20:33.186Z,2.30
2017-11-13T23:23:00.693Z,2.30
2017-11-13T23:25:28.241Z,2.30
2017-11-13T23:27:55.759Z,2.30
2017-11-13T23:30:23.297Z,2.20
2017-11-13T23:32:50.816Z,2.20
2017-11-13T23:35:18.359Z,2.10
2017-11-13T23:37:45.889Z,2.10
2017-11-13T23:40:13.411Z,2.10
2017-11-13T23:42:40.952Z,2.10
2017-11-13T23:45:08.469Z,2.00
2017-11-13T23:47:35.991Z,2.00
2017-11-13T23:50:03.496Z,2.00
2017-11-13T23:52:31.440Z,2.00
2017-11-13T23:54:58.971Z,1.90
2017-11-13T23:57:26.497Z,1.90
2017-11-13T23:59:54.012Z,1.90
